Etusivu
METAR-TAF:

METAR-TAF

Lentoasemat :

Arvidsjaur, Ruotsi

Leveyspiiri: 65-35-25N, Pituuspiiri: 019-16-55E, korkeus merenpinnasta: 379 m

Tämänhetkinen sää

Tämä raportti tehtiin 29 minuuttia sitten, kello 15.50 UTC
Tuuli 5 kn etelästä/kaakosta
Lämpötila 19°C
Kosteus 52%
Ilmanpaine 1024 hPa
Näkyvyys 10 km tai enemmän

METAR: ESNX 111550Z AUTO 15005KT 9999 BKN055/// 19/09 Q1024

Aika: 18:19 (16:19 UTC)

Sääennuste

Tämä raportti tehtiin 25 tuntia ja 49 minuuttia sitten, kello 14.30 UTC
Ennuste voimassa 10. päivästä klo 15 UTC - 10. päivään klo 17 UTC
Tuuli 2 kn eri suunnista
Näkyvyys 10 km tai enemmän
ei pilviä alle 1500 m:ssä eikä cumulonimbus-pilviä

TAF: ESNX 101430Z 1015/1017 VRB02KT CAVOK

Säähavainnot ja -ennusteet yli 4000 lentoasemalta (METAR- ja TAF-raportit).

Käytössä olevat sääasemat on merkitty karttaan keltaisilla ja punaisilla pisteillä.

Aseta hiiri pisteen päälle nähdäksesi sääaseman nimen.

Klikkaa sitten nähdäksesi säähavainnot ja -ennusteet.

Kartan vaihtaminen: klikkaa mustalla rastilla varustettuja vihreitä pisteitä, niin voit zoomata sisään; viivalla varustettua vihreää pistettä, niin voit zoomata ulos tai vihreitä nuolia, niin pääset viereisille kartoille.


METAR-TAF: